createdAt,value
2017-12-23T00:00:54.744Z,96.43
2017-12-23T00:03:22.208Z,96.60
2017-12-23T00:05:49.682Z,95.93
2017-12-23T00:08:17.136Z,96.01
2017-12-23T00:10:44.635Z,96.43
2017-12-23T00:13:12.097Z,96.35
2017-12-23T00:15:39.585Z,96.53
2017-12-23T00:18:07.036Z,96.37
2017-12-23T00:20:34.514Z,95.51
2017-12-23T00:23:01.974Z,96.01
2017-12-23T00:25:29.459Z,97.05
2017-12-23T00:27:56.945Z,96.88
2017-12-23T00:30:24.438Z,96.70
2017-12-23T00:32:51.894Z,96.48
2017-12-23T00:35:19.386Z,97.38
2017-12-23T00:37:46.845Z,97.47
2017-12-23T00:40:14.368Z,96.98
2017-12-23T00:42:41.848Z,96.77
2017-12-23T00:45:09.304Z,95.97
2017-12-23T00:47:37.060Z,96.00
2017-12-23T00:50:04.520Z,95.90
2017-12-23T00:52:32.001Z,96.20
2017-12-23T00:54:59.459Z,95.87
2017-12-23T00:57:26.936Z,96.32
2017-12-23T00:59:54.440Z,95.85
2017-12-23T01:02:21.928Z,95.95
2017-12-23T01:04:49.384Z,96.77
2017-12-23T01:07:16.917Z,96.60
2017-12-23T01:09:44.377Z,96.53
2017-12-23T01:12:11.850Z,96.72
2017-12-23T01:14:39.330Z,96.52
2017-12-23T01:17:06.794Z,96.54
2017-12-23T01:19:34.281Z,96.75
2017-12-23T01:22:01.825Z,96.99
2017-12-23T01:24:29.310Z,97.30
2017-12-23T01:26:56.801Z,96.93
2017-12-23T01:29:24.263Z,97.34
2017-12-23T01:31:51.693Z,96.79
2017-12-23T01:34:19.159Z,96.66
2017-12-23T01:36:46.589Z,96.38
2017-12-23T01:39:14.046Z,96.53
2017-12-23T01:41:41.539Z,96.33
2017-12-23T01:44:08.998Z,96.66
2017-12-23T01:46:37.330Z,96.24
2017-12-23T01:49:04.776Z,96.91
2017-12-23T01:51:32.243Z,96.99
2017-12-23T01:53:59.677Z,97.30
2017-12-23T01:56:27.143Z,96.80
2017-12-23T01:58:54.581Z,96.74
2017-12-23T02:01:22.760Z,96.79
2017-12-23T02:03:50.201Z,96.81
2017-12-23T02:06:17.724Z,96.96
2017-12-23T02:08:45.158Z,96.77
2017-12-23T02:11:12.669Z,96.99
2017-12-23T02:13:40.105Z,96.82
2017-12-23T02:16:07.557Z,97.21
2017-12-23T02:18:35.056Z,96.78
2017-12-23T02:21:02.523Z,96.37
2017-12-23T02:23:30.001Z,97.09
2017-12-23T02:25:57.448Z,97.43
2017-12-23T02:28:24.919Z,96.75
2017-12-23T02:30:52.412Z,96.27
2017-12-23T02:33:19.877Z,96.93
2017-12-23T02:35:47.314Z,97.39
2017-12-23T02:38:14.778Z,97.48
2017-12-23T02:40:42.226Z,97.27
2017-12-23T02:43:09.690Z,96.99
2017-12-23T02:45:37.234Z,97.33
2017-12-23T02:48:04.693Z,97.59
2017-12-23T02:50:32.134Z,97.97
2017-12-23T02:52:59.710Z,97.70
2017-12-23T02:55:27.221Z,97.39
2017-12-23T02:57:54.690Z,97.10
2017-12-23T03:00:22.141Z,96.89
2017-12-23T03:02:49.708Z,97.00
2017-12-23T03:05:17.170Z,97.12
2017-12-23T03:07:44.617Z,97.61
2017-12-23T03:10:12.084Z,97.08
2017-12-23T03:12:39.517Z,97.04
2017-12-23T03:15:06.996Z,97.67
2017-12-23T03:17:34.456Z,98.40
2017-12-23T03:20:01.934Z,97.69
2017-12-23T03:22:29.383Z,97.72
2017-12-23T03:24:56.841Z,97.49
2017-12-23T03:27:24.371Z,97.56
2017-12-23T03:29:51.833Z,97.33
2017-12-23T03:32:19.269Z,98.04
2017-12-23T03:34:46.715Z,98.09
2017-12-23T03:37:14.177Z,98.37
2017-12-23T03:39:41.624Z,96.59
2017-12-23T03:42:09.138Z,95.50
2017-12-23T03:44:36.583Z,96.51
2017-12-23T03:47:04.048Z,95.71
2017-12-23T03:49:31.559Z,95.53
2017-12-23T03:51:59.036Z,94.93
2017-12-23T03:54:26.586Z,95.38
2017-12-23T03:56:54.365Z,95.13
2017-12-23T03:59:21.810Z,94.62
2017-12-23T04:01:49.294Z,94.59
2017-12-23T04:04:16.729Z,95.38
2017-12-23T04:06:44.191Z,95.67
2017-12-23T04:09:11.637Z,96.39
2017-12-23T04:11:39.098Z,96.03
2017-12-23T04:14:06.537Z,96.17
2017-12-23T04:16:33.989Z,96.08
2017-12-23T04:19:01.435Z,96.22
2017-12-23T04:21:28.904Z,96.25
2017-12-23T04:23:56.368Z,96.06
2017-12-23T04:26:23.815Z,96.15
2017-12-23T04:28:51.277Z,96.19
2017-12-23T04:31:18.713Z,96.38
2017-12-23T04:33:46.182Z,96.22
2017-12-23T04:36:13.633Z,96.37
2017-12-23T04:38:41.105Z,96.14
2017-12-23T04:41:08.551Z,95.25
2017-12-23T04:43:36.011Z,94.31
2017-12-23T04:46:03.436Z,94.61
2017-12-23T04:48:30.906Z,94.14
2017-12-23T04:50:58.338Z,94.29
2017-12-23T04:53:25.789Z,93.48
2017-12-23T04:55:53.226Z,93.84
2017-12-23T04:58:20.658Z,93.22
2017-12-23T05:00:48.115Z,93.81
2017-12-23T05:03:15.541Z,93.94
2017-12-23T05:05:42.994Z,94.19
2017-12-23T05:08:10.425Z,93.68
2017-12-23T05:10:37.893Z,93.36
2017-12-23T05:13:05.330Z,93.43
2017-12-23T05:15:32.785Z,93.42
2017-12-23T05:18:00.220Z,93.74
2017-12-23T05:20:27.678Z,93.42
2017-12-23T05:22:55.109Z,92.60
2017-12-23T05:25:22.578Z,92.58
2017-12-23T05:27:50.026Z,92.95
2017-12-23T05:30:17.490Z,92.63
2017-12-23T05:32:44.925Z,92.18
2017-12-23T05:35:12.375Z,91.79
2017-12-23T05:37:39.834Z,93.09
2017-12-23T05:40:07.280Z,93.05
2017-12-23T05:42:34.756Z,92.73
2017-12-23T05:45:02.189Z,92.55
2017-12-23T05:47:29.647Z,92.37
2017-12-23T05:49:57.110Z,91.05
2017-12-23T05:52:24.576Z,92.03
2017-12-23T05:54:52.023Z,92.39
2017-12-23T05:57:19.477Z,92.33
2017-12-23T05:59:46.929Z,91.83
2017-12-23T06:02:14.382Z,91.52
2017-12-23T06:04:41.878Z,91.07
2017-12-23T06:07:09.338Z,91.48
2017-12-23T06:09:36.772Z,91.23
2017-12-23T06:12:04.904Z,90.71
2017-12-23T06:14:32.420Z,91.63
2017-12-23T06:16:59.867Z,90.98
2017-12-23T06:19:27.324Z,90.97
2017-12-23T06:21:54.794Z,91.27
2017-12-23T06:24:22.251Z,91.04
2017-12-23T06:26:49.753Z,90.98
2017-12-23T06:29:17.231Z,90.84
2017-12-23T06:31:44.677Z,90.86
2017-12-23T06:34:12.134Z,90.72
2017-12-23T06:36:39.576Z,90.66
2017-12-23T06:39:07.029Z,89.99
2017-12-23T06:41:34.456Z,90.36
2017-12-23T06:44:01.917Z,89.71
2017-12-23T06:46:29.411Z,89.56
2017-12-23T06:48:56.816Z,89.33
2017-12-23T06:51:24.283Z,89.41
2017-12-23T06:53:51.724Z,89.32
2017-12-23T06:56:19.206Z,89.78
2017-12-23T06:58:46.651Z,88.55
2017-12-23T07:01:14.134Z,89.13
2017-12-23T07:03:41.565Z,89.59
2017-12-23T07:06:09.032Z,89.10
2017-12-23T07:08:36.465Z,89.21
2017-12-23T07:11:03.930Z,90.17
2017-12-23T07:13:31.371Z,90.84
2017-12-23T07:15:58.844Z,89.99
2017-12-23T07:18:26.277Z,89.52
2017-12-23T07:20:53.757Z,90.84
2017-12-23T07:23:21.190Z,90.86
2017-12-23T07:25:48.658Z,91.07
2017-12-23T07:28:16.107Z,91.33
2017-12-23T07:30:43.542Z,90.88
2017-12-23T07:33:10.997Z,90.56
2017-12-23T07:35:38.430Z,90.67
2017-12-23T07:38:05.877Z,91.09
2017-12-23T07:40:33.307Z,91.05
2017-12-23T07:43:00.918Z,90.91
2017-12-23T07:45:28.366Z,91.20
2017-12-23T07:47:55.831Z,91.13
2017-12-23T07:50:23.278Z,90.69
2017-12-23T07:52:50.830Z,91.21
2017-12-23T07:55:18.280Z,90.59
2017-12-23T07:57:45.742Z,90.76
2017-12-23T08:00:13.189Z,90.32
2017-12-23T08:02:40.637Z,90.47
2017-12-23T08:05:08.081Z,90.53
2017-12-23T08:07:35.537Z,90.17
2017-12-23T08:10:02.992Z,89.67
2017-12-23T08:12:30.451Z,89.48
2017-12-23T08:14:57.888Z,89.62
2017-12-23T08:17:25.365Z,90.20
2017-12-23T08:19:52.857Z,89.94
2017-12-23T08:22:20.265Z,89.81
2017-12-23T08:24:47.824Z,89.69
2017-12-23T08:27:15.258Z,89.41
2017-12-23T08:29:42.739Z,89.57
2017-12-23T08:32:10.177Z,88.87
2017-12-23T08:34:37.661Z,88.97
2017-12-23T08:37:05.097Z,89.15
2017-12-23T08:39:32.545Z,89.38
2017-12-23T08:42:00.046Z,89.79
2017-12-23T08:44:27.515Z,89.61
2017-12-23T08:46:54.955Z,89.47
2017-12-23T08:49:22.427Z,89.61
2017-12-23T08:51:49.861Z,89.32
2017-12-23T08:54:17.349Z,89.00
2017-12-23T08:56:44.791Z,88.62
2017-12-23T08:59:12.228Z,88.40
2017-12-23T09:01:39.683Z,88.37
2017-12-23T09:04:07.114Z,88.34
2017-12-23T09:06:34.578Z,88.09
2017-12-23T09:09:02.028Z,88.28
2017-12-23T09:11:29.489Z,87.91
2017-12-23T09:13:56.929Z,87.49
2017-12-23T09:16:24.391Z,88.35
2017-12-23T09:18:51.828Z,88.59
2017-12-23T09:21:19.293Z,87.80
2017-12-23T09:23:46.741Z,87.32
2017-12-23T09:26:14.209Z,87.66
2017-12-23T09:28:41.650Z,86.91
2017-12-23T09:31:09.122Z,86.63
2017-12-23T09:33:36.568Z,86.22
2017-12-23T09:36:04.077Z,85.77
2017-12-23T09:38:31.508Z,86.62
2017-12-23T09:40:58.955Z,86.49
2017-12-23T09:43:26.410Z,86.55
2017-12-23T09:45:53.893Z,85.53
2017-12-23T09:48:21.368Z,84.85
2017-12-23T09:50:48.816Z,84.51
2017-12-23T09:53:16.272Z,86.03
2017-12-23T09:55:43.703Z,85.66
2017-12-23T09:58:11.161Z,85.54
2017-12-23T10:00:38.601Z,85.63
2017-12-23T10:03:06.106Z,85.53
2017-12-23T10:05:33.557Z,85.49
2017-12-23T10:08:01.107Z,85.04
2017-12-23T10:10:28.549Z,85.60
2017-12-23T10:12:55.991Z,85.49
2017-12-23T10:15:23.462Z,85.47
2017-12-23T10:17:50.947Z,85.57
2017-12-23T10:20:18.413Z,85.45
2017-12-23T10:22:45.850Z,85.87
2017-12-23T10:25:13.310Z,85.63
2017-12-23T10:27:40.767Z,85.38
2017-12-23T10:30:08.230Z,85.19
2017-12-23T10:32:35.677Z,85.17
2017-12-23T10:35:03.151Z,85.34
2017-12-23T10:37:30.577Z,85.17
2017-12-23T10:39:58.105Z,84.99
2017-12-23T10:42:25.545Z,84.98
2017-12-23T10:44:53.010Z,84.94
2017-12-23T10:47:20.450Z,84.82
2017-12-23T10:49:47.895Z,84.71
2017-12-23T10:52:15.361Z,84.97
2017-12-23T10:54:42.815Z,84.62
2017-12-23T10:57:10.278Z,84.79
2017-12-23T10:59:37.738Z,84.79
2017-12-23T11:02:05.197Z,84.91
2017-12-23T11:04:32.647Z,85.17
2017-12-23T11:07:00.118Z,83.83
2017-12-23T11:09:27.578Z,84.50
2017-12-23T11:11:55.696Z,84.03
2017-12-23T11:14:23.139Z,83.53
2017-12-23T11:16:50.645Z,84.20
2017-12-23T11:19:18.150Z,83.27
2017-12-23T11:21:45.620Z,83.55
2017-12-23T11:24:13.054Z,83.62
2017-12-23T11:26:40.637Z,83.73
2017-12-23T11:29:08.074Z,84.00
2017-12-23T11:31:35.522Z,83.54
2017-12-23T11:34:02.987Z,82.99
2017-12-23T11:36:30.593Z,83.00
2017-12-23T11:38:58.107Z,83.50
2017-12-23T11:41:25.977Z,83.16
2017-12-23T11:43:56.116Z,83.16
2017-12-23T11:46:23.633Z,83.60
2017-12-23T11:48:51.097Z,83.40
2017-12-23T11:51:18.544Z,83.66
2017-12-23T11:53:46.228Z,83.86
2017-12-23T11:56:13.792Z,84.18
2017-12-23T11:58:41.553Z,84.00
2017-12-23T12:01:08.987Z,84.23
2017-12-23T12:03:36.462Z,84.43
2017-12-23T12:06:03.901Z,83.51
2017-12-23T12:08:31.374Z,83.35
2017-12-23T12:10:58.814Z,83.53
2017-12-23T12:13:26.281Z,82.97
2017-12-23T12:15:53.717Z,82.68
2017-12-23T12:18:21.167Z,83.58
2017-12-23T12:20:48.691Z,83.20
2017-12-23T12:23:16.126Z,83.53
2017-12-23T12:25:43.582Z,83.54
2017-12-23T12:28:11.025Z,83.03
2017-12-23T12:30:38.513Z,83.02
2017-12-23T12:33:05.956Z,83.46
2017-12-23T12:35:33.614Z,83.00
2017-12-23T12:38:01.076Z,82.97
2017-12-23T12:40:28.539Z,82.97
2017-12-23T12:42:55.991Z,83.09
2017-12-23T12:45:23.497Z,82.75
2017-12-23T12:47:50.934Z,82.80
2017-12-23T12:50:18.369Z,83.26
2017-12-23T12:52:45.830Z,83.04
2017-12-23T12:55:13.320Z,83.07
2017-12-23T12:57:40.838Z,83.86
2017-12-23T13:00:08.315Z,83.74
2017-12-23T13:02:35.783Z,82.63
2017-12-23T13:05:03.228Z,82.64
2017-12-23T13:07:30.684Z,83.65
2017-12-23T13:09:58.135Z,83.33
2017-12-23T13:12:25.598Z,84.08
2017-12-23T13:14:53.089Z,83.40
2017-12-23T13:17:20.601Z,83.68
2017-12-23T13:19:48.055Z,83.51
2017-12-23T13:22:15.522Z,83.44
2017-12-23T13:24:42.967Z,82.81
2017-12-23T13:27:10.421Z,83.06
2017-12-23T13:29:37.852Z,82.44
2017-12-23T13:32:05.305Z,82.85
2017-12-23T13:34:32.737Z,82.76
2017-12-23T13:37:00.213Z,82.31
2017-12-23T13:39:27.679Z,83.20
2017-12-23T13:41:55.118Z,83.30
2017-12-23T13:44:22.569Z,82.43
2017-12-23T13:46:50.006Z,83.55
2017-12-23T13:49:17.510Z,82.97
2017-12-23T13:51:44.948Z,83.07
2017-12-23T13:54:12.411Z,83.01
2017-12-23T13:56:39.849Z,82.87
2017-12-23T13:59:07.319Z,83.24
2017-12-23T14:01:34.782Z,82.98
2017-12-23T14:04:02.292Z,83.34
2017-12-23T14:06:29.804Z,83.69
2017-12-23T14:08:57.271Z,83.82
2017-12-23T14:11:24.719Z,83.22
2017-12-23T14:13:52.175Z,83.74
2017-12-23T14:16:19.614Z,83.63
2017-12-23T14:18:47.107Z,82.68
2017-12-23T14:21:14.559Z,82.94
2017-12-23T14:23:42.001Z,83.39
2017-12-23T14:26:09.471Z,83.15
2017-12-23T14:28:36.915Z,83.30
2017-12-23T14:31:04.377Z,83.99
2017-12-23T14:33:31.824Z,83.24
2017-12-23T14:35:59.392Z,84.03
2017-12-23T14:38:30.614Z,83.96
2017-12-23T14:40:59.844Z,83.82
2017-12-23T14:43:27.420Z,83.68
2017-12-23T14:45:54.893Z,83.72
2017-12-23T14:48:22.345Z,83.77
2017-12-23T14:50:49.823Z,83.33
2017-12-23T14:53:17.268Z,83.39
2017-12-23T14:55:44.725Z,83.37
2017-12-23T14:58:12.179Z,84.20
2017-12-23T15:00:39.653Z,84.28
2017-12-23T15:03:07.093Z,83.82
2017-12-23T15:05:34.760Z,82.68
2017-12-23T15:08:02.194Z,82.78
2017-12-23T15:10:29.630Z,81.98
2017-12-23T15:12:57.176Z,81.89
2017-12-23T15:15:24.679Z,82.79
2017-12-23T15:17:52.168Z,82.01
2017-12-23T15:20:19.606Z,82.29
2017-12-23T15:22:47.085Z,82.63
2017-12-23T15:25:14.538Z,83.41
2017-12-23T15:27:42.060Z,83.65
2017-12-23T15:30:09.538Z,83.33
2017-12-23T15:32:37.010Z,82.66
2017-12-23T15:35:04.453Z,83.15
2017-12-23T15:37:31.939Z,83.04
2017-12-23T15:39:59.383Z,82.83
2017-12-23T15:42:26.919Z,81.91
2017-12-23T15:44:54.379Z,82.49
2017-12-23T15:47:21.820Z,82.44
2017-12-23T15:49:49.292Z,82.23
2017-12-23T15:52:16.747Z,83.00
2017-12-23T15:54:44.214Z,82.78
2017-12-23T15:57:11.649Z,83.36
2017-12-23T15:59:39.113Z,82.21
2017-12-23T16:02:06.552Z,82.41
2017-12-23T16:04:34.023Z,82.41
2017-12-23T16:07:01.488Z,83.01
2017-12-23T16:09:28.967Z,83.08
2017-12-23T16:11:56.464Z,82.43
2017-12-23T16:14:23.925Z,82.20
2017-12-23T16:16:51.375Z,82.35
2017-12-23T16:19:18.841Z,82.75
2017-12-23T16:21:46.282Z,82.04
2017-12-23T16:24:13.726Z,82.47
2017-12-23T16:26:41.202Z,83.10
2017-12-23T16:29:08.652Z,83.37
2017-12-23T16:31:36.119Z,83.12
2017-12-23T16:34:03.562Z,83.29
2017-12-23T16:36:31.017Z,83.12
2017-12-23T16:38:58.451Z,83.07
2017-12-23T16:41:25.901Z,82.81
2017-12-23T16:43:53.362Z,83.28
2017-12-23T16:46:20.823Z,83.13
2017-12-23T16:48:48.305Z,83.53
2017-12-23T16:51:15.782Z,83.59
2017-12-23T16:53:43.275Z,83.35
2017-12-23T16:56:10.749Z,83.36
2017-12-23T16:58:38.214Z,83.58
2017-12-23T17:01:05.665Z,83.27
2017-12-23T17:03:33.135Z,83.67
2017-12-23T17:06:00.643Z,82.74
2017-12-23T17:08:28.137Z,83.24
2017-12-23T17:10:55.590Z,83.52
2017-12-23T17:13:23.051Z,83.75
2017-12-23T17:15:50.490Z,83.38
2017-12-23T17:18:17.949Z,83.25
2017-12-23T17:20:45.377Z,83.82
2017-12-23T17:23:12.850Z,83.54
2017-12-23T17:25:40.305Z,83.73
2017-12-23T17:28:16.696Z,83.28
2017-12-23T17:30:44.199Z,83.51
2017-12-23T17:33:11.665Z,83.60
2017-12-23T17:35:39.114Z,83.70
2017-12-23T17:38:06.596Z,83.71
2017-12-23T17:40:34.036Z,83.50
2017-12-23T17:43:01.505Z,84.01
2017-12-23T17:45:28.957Z,83.87
2017-12-23T17:47:56.415Z,83.77
2017-12-23T17:50:23.907Z,84.23
2017-12-23T17:52:51.335Z,84.27
2017-12-23T17:55:18.770Z,83.62
2017-12-23T17:57:46.234Z,83.28
2017-12-23T18:00:13.697Z,81.90
2017-12-23T18:02:41.159Z,82.97
2017-12-23T18:05:08.630Z,83.54
2017-12-23T18:07:36.065Z,83.19
2017-12-23T18:10:03.623Z,82.91
2017-12-23T18:12:31.072Z,83.06
2017-12-23T18:14:58.577Z,81.44
2017-12-23T18:17:26.042Z,82.30
2017-12-23T18:19:53.517Z,81.61
2017-12-23T18:22:21.012Z,82.28
2017-12-23T18:24:48.491Z,81.81
2017-12-23T18:27:15.963Z,82.20
2017-12-23T18:29:43.442Z,82.46
2017-12-23T18:32:10.948Z,82.48
2017-12-23T18:34:38.500Z,81.92
2017-12-23T18:37:05.957Z,82.60
2017-12-23T18:39:33.419Z,83.13
2017-12-23T18:42:00.877Z,83.02
2017-12-23T18:44:28.314Z,83.10
2017-12-23T18:46:55.777Z,83.17
2017-12-23T18:49:23.220Z,83.10
2017-12-23T18:51:50.669Z,82.99
2017-12-23T18:54:18.141Z,82.89
2017-12-23T18:56:45.618Z,82.58
2017-12-23T18:59:13.087Z,82.91
2017-12-23T19:01:40.553Z,83.20
2017-12-23T19:04:07.989Z,83.36
2017-12-23T19:06:35.446Z,82.58
2017-12-23T19:09:02.891Z,83.12
2017-12-23T19:11:30.392Z,83.23
2017-12-23T19:13:57.837Z,83.33
2017-12-23T19:16:37.210Z,83.14
2017-12-23T19:19:04.679Z,82.82
2017-12-23T19:21:32.121Z,83.29
2017-12-23T19:23:59.581Z,82.27
2017-12-23T19:26:27.009Z,82.25
2017-12-23T19:28:54.493Z,81.69
2017-12-23T19:31:21.944Z,82.16
2017-12-23T19:33:49.413Z,82.23
2017-12-23T19:36:16.849Z,82.68
2017-12-23T19:38:44.326Z,82.18
2017-12-23T19:41:11.802Z,82.43
2017-12-23T19:43:39.267Z,82.19
2017-12-23T19:46:07.389Z,82.77
2017-12-23T19:48:34.906Z,81.92
2017-12-23T19:51:02.344Z,82.33
2017-12-23T19:53:29.818Z,82.80
2017-12-23T19:55:58.085Z,82.17
2017-12-23T19:58:25.527Z,82.20
2017-12-23T20:00:52.986Z,82.12
2017-12-23T20:03:20.472Z,81.48
2017-12-23T20:05:47.932Z,81.52
2017-12-23T20:08:15.361Z,82.62
2017-12-23T20:10:42.817Z,81.60
2017-12-23T20:13:10.297Z,81.80
2017-12-23T20:15:37.782Z,82.37
2017-12-23T20:18:05.218Z,82.87
2017-12-23T20:20:32.782Z,82.84
2017-12-23T20:23:00.219Z,82.18
2017-12-23T20:25:27.681Z,81.96
2017-12-23T20:27:55.121Z,82.03
2017-12-23T20:30:22.578Z,81.57
2017-12-23T20:32:50.018Z,81.52
2017-12-23T20:35:17.522Z,82.12
2017-12-23T20:37:44.971Z,82.08
2017-12-23T20:40:12.410Z,81.72
2017-12-23T20:42:39.885Z,81.85
2017-12-23T20:45:07.321Z,82.26
2017-12-23T20:47:34.776Z,82.88
2017-12-23T20:50:02.233Z,82.12
2017-12-23T20:52:29.753Z,82.16
2017-12-23T20:54:57.239Z,82.71
2017-12-23T20:57:24.718Z,82.30
2017-12-23T20:59:52.185Z,81.33
2017-12-23T21:02:19.643Z,81.62
2017-12-23T21:04:47.089Z,82.00
2017-12-23T21:07:14.559Z,81.45
2017-12-23T21:09:42.008Z,80.87
2017-12-23T21:12:09.474Z,81.04
2017-12-23T21:14:36.909Z,80.79
2017-12-23T21:17:04.371Z,81.33
2017-12-23T21:19:31.814Z,81.42
2017-12-23T21:21:59.317Z,81.18
2017-12-23T21:24:26.787Z,80.94
2017-12-23T21:26:54.284Z,80.46
2017-12-23T21:29:21.730Z,80.78
2017-12-23T21:31:49.168Z,81.67
2017-12-23T21:34:16.630Z,81.17
2017-12-23T21:36:44.107Z,81.02
2017-12-23T21:39:11.695Z,80.13
2017-12-23T21:41:39.162Z,80.62
2017-12-23T21:44:06.638Z,81.25
2017-12-23T21:46:34.078Z,80.84
2017-12-23T21:49:01.554Z,80.60
2017-12-23T21:51:28.985Z,80.83
2017-12-23T21:53:56.446Z,79.90
2017-12-23T21:56:23.883Z,80.55
2017-12-23T21:58:51.399Z,80.53
2017-12-23T22:01:18.859Z,79.96
2017-12-23T22:03:46.371Z,80.45
2017-12-23T22:06:13.865Z,80.39
2017-12-23T22:08:41.345Z,79.85
2017-12-23T22:11:08.828Z,79.98
2017-12-23T22:13:36.296Z,79.32
2017-12-23T22:16:03.766Z,80.35
2017-12-23T22:18:31.194Z,80.87
2017-12-23T22:20:58.694Z,80.22
2017-12-23T22:23:26.873Z,80.69
2017-12-23T22:25:54.313Z,80.85
2017-12-23T22:28:21.770Z,80.85
2017-12-23T22:30:49.234Z,79.94
2017-12-23T22:33:16.691Z,80.57
2017-12-23T22:35:44.164Z,79.86
2017-12-23T22:38:11.650Z,79.95
2017-12-23T22:40:39.127Z,80.76
2017-12-23T22:43:06.596Z,80.56
2017-12-23T22:45:34.029Z,81.13
2017-12-23T22:48:01.506Z,80.52
2017-12-23T22:50:28.951Z,80.61
2017-12-23T22:52:56.405Z,80.67
2017-12-23T22:55:23.865Z,80.51
2017-12-23T22:57:51.312Z,80.88
2017-12-23T23:00:18.773Z,80.68
2017-12-23T23:02:46.205Z,80.30
2017-12-23T23:05:13.723Z,79.98
2017-12-23T23:07:41.182Z,80.57
2017-12-23T23:10:08.641Z,80.42
2017-12-23T23:12:36.074Z,80.52
2017-12-23T23:15:03.610Z,80.08
2017-12-23T23:17:31.038Z,80.79
2017-12-23T23:19:58.502Z,80.05
2017-12-23T23:22:25.978Z,80.22
2017-12-23T23:24:53.428Z,80.79
2017-12-23T23:27:20.865Z,81.03
2017-12-23T23:29:48.301Z,80.85
2017-12-23T23:32:15.763Z,81.48
2017-12-23T23:34:43.209Z,81.02
2017-12-23T23:37:10.689Z,81.33
2017-12-23T23:39:38.137Z,80.89
2017-12-23T23:42:05.644Z,81.32
2017-12-23T23:44:33.096Z,81.08
2017-12-23T23:47:00.552Z,81.40
2017-12-23T23:49:27.990Z,81.71
2017-12-23T23:51:55.444Z,81.98
2017-12-23T23:54:22.889Z,81.81
2017-12-23T23:56:50.345Z,82.36
2017-12-23T23:59:17.776Z,82.45
